createdAt,value
2022-09-25T00:01:31.258Z,67.60
2022-09-25T00:03:59.920Z,67.30
2022-09-25T00:06:29.462Z,67.30
2022-09-25T00:08:58.807Z,67.20
2022-09-25T00:11:29.815Z,67.10
2022-09-25T00:13:58.926Z,67.10
2022-09-25T00:16:31.228Z,67.90
2022-09-25T00:19:17.649Z,67.10
2022-09-25T00:21:46.183Z,67.10
2022-09-25T00:24:15.160Z,67.00
2022-09-25T00:26:44.313Z,66.90
2022-09-25T00:29:17.632Z,66.90
2022-09-25T00:31:47.375Z,67.00
2022-09-25T00:34:15.749Z,67.00
2022-09-25T00:36:44.003Z,66.90
2022-09-25T00:39:12.252Z,67.00
2022-09-25T00:41:40.528Z,67.20
2022-09-25T00:44:52.454Z,67.40
2022-09-25T00:47:27.510Z,67.40
2022-09-25T00:49:57.935Z,68.20
2022-09-25T00:52:27.851Z,67.50
2022-09-25T00:55:00.033Z,67.70
2022-09-25T00:57:31.786Z,67.80
2022-09-25T01:00:03.445Z,68.00
2022-09-25T01:02:36.660Z,68.10
2022-09-25T01:05:08.731Z,68.30
2022-09-25T01:07:40.296Z,68.30
2022-09-25T01:10:10.510Z,68.40
2022-09-25T01:12:43.555Z,68.50
2022-09-25T01:15:13.407Z,68.60
2022-09-25T01:17:51.347Z,68.80
2022-09-25T01:20:37.462Z,68.80
2022-09-25T01:23:18.508Z,68.90
2022-09-25T01:26:01.671Z,69.10
2022-09-25T01:29:03.186Z,69.10
2022-09-25T01:31:43.086Z,69.20
2022-09-25T01:34:19.045Z,69.30
2022-09-25T01:36:54.215Z,69.50
2022-09-25T01:39:26.630Z,69.60
2022-09-25T01:42:02.352Z,69.70
2022-09-25T01:44:34.341Z,70.00
2022-09-25T01:47:09.683Z,70.00
2022-09-25T01:49:41.239Z,70.10
2022-09-25T01:52:15.254Z,70.20
2022-09-25T01:54:47.146Z,70.30
2022-09-25T01:57:20.282Z,70.50
2022-09-25T01:59:55.313Z,70.70
2022-09-25T02:02:27.841Z,70.80
2022-09-25T02:05:00.890Z,70.80
2022-09-25T02:07:35.945Z,70.90
2022-09-25T02:10:09.609Z,71.00
2022-09-25T02:12:41.308Z,71.30
2022-09-25T02:15:15.997Z,71.30
2022-09-25T02:18:07.109Z,71.40
2022-09-25T02:20:42.000Z,71.40
2022-09-25T02:23:18.783Z,71.40
2022-09-25T02:25:51.023Z,71.60
2022-09-25T02:28:19.417Z,71.70
2022-09-25T02:30:50.654Z,71.70
2022-09-25T02:33:19.194Z,71.90
2022-09-25T02:35:47.415Z,72.00
2022-09-25T02:38:17.068Z,72.20
2022-09-25T02:40:51.503Z,72.20
2022-09-25T02:43:31.255Z,72.30
2022-09-25T02:46:13.346Z,72.40
2022-09-25T02:48:52.144Z,72.40
2022-09-25T02:51:28.393Z,72.40
2022-09-25T02:54:05.885Z,72.40
2022-09-25T02:56:38.412Z,72.50
2022-09-25T02:59:10.018Z,72.50
2022-09-25T03:01:43.135Z,72.50
2022-09-25T03:04:12.523Z,72.50
2022-09-25T03:06:41.738Z,72.60
2022-09-25T03:09:11.110Z,72.80
2022-09-25T03:11:41.582Z,72.80
2022-09-25T03:14:09.921Z,72.90
2022-09-25T03:16:46.265Z,73.00
2022-09-25T03:19:14.920Z,74.00
2022-09-25T03:21:43.535Z,73.20
2022-09-25T03:24:11.923Z,73.20
2022-09-25T03:26:41.143Z,73.20
2022-09-25T03:29:09.983Z,73.30
2022-09-25T03:31:39.743Z,73.50
2022-09-25T03:34:08.070Z,73.50
2022-09-25T03:36:36.825Z,73.50
2022-09-25T03:39:06.199Z,73.60
2022-09-25T03:41:36.163Z,73.70
2022-09-25T03:44:05.623Z,73.80
2022-09-25T03:46:35.464Z,73.80
2022-09-25T03:49:05.700Z,73.90
2022-09-25T03:51:35.301Z,74.10
2022-09-25T03:54:04.270Z,74.10
2022-09-25T03:56:32.881Z,74.10
2022-09-25T03:59:01.520Z,74.10
2022-09-25T04:01:30.150Z,74.10
2022-09-25T04:04:01.314Z,74.10
2022-09-25T04:06:31.063Z,75.00
2022-09-25T04:08:59.343Z,74.30
2022-09-25T04:11:27.628Z,74.30
2022-09-25T04:13:57.030Z,74.40
2022-09-25T04:16:26.070Z,74.40
2022-09-25T04:18:54.369Z,74.40
2022-09-25T04:21:22.682Z,74.60
2022-09-25T04:24:06.194Z,74.60
2022-09-25T04:26:34.892Z,74.70
2022-09-25T04:29:04.118Z,74.80
2022-09-25T04:31:33.377Z,74.90
2022-09-25T04:34:02.611Z,74.90
2022-09-25T04:36:30.887Z,75.30
2022-09-25T04:39:00.492Z,75.40
2022-09-25T04:41:28.695Z,75.50
2022-09-25T04:43:56.919Z,75.50
2022-09-25T04:46:25.232Z,75.70
2022-09-25T04:48:53.508Z,75.90
2022-09-25T04:51:22.041Z,75.90
2022-09-25T04:53:50.290Z,76.00
2022-09-25T04:56:19.936Z,76.20
2022-09-25T04:58:49.669Z,76.20
2022-09-25T05:01:19.905Z,76.50
2022-09-25T05:03:50.120Z,76.60
2022-09-25T05:06:18.667Z,76.60
2022-09-25T05:08:49.410Z,76.90
2022-09-25T05:11:19.151Z,77.50
2022-09-25T05:13:51.460Z,77.40
2022-09-25T05:16:20.206Z,77.40
2022-09-25T05:18:48.764Z,77.80
2022-09-25T05:21:17.015Z,78.00
2022-09-25T05:23:45.235Z,77.80
2022-09-25T05:26:13.585Z,77.90
2022-09-25T05:28:43.264Z,77.80
2022-09-25T05:31:11.598Z,77.80
2022-09-25T05:33:39.870Z,77.90
2022-09-25T05:36:09.542Z,77.90
2022-09-25T05:38:39.645Z,77.70
2022-09-25T05:41:09.862Z,78.00
2022-09-25T05:43:41.377Z,77.80
2022-09-25T05:46:11.875Z,77.70
2022-09-25T05:48:40.205Z,77.60
2022-09-25T05:51:08.749Z,77.50
2022-09-25T05:53:38.247Z,77.70
2022-09-25T05:56:07.268Z,77.90
2022-09-25T05:58:36.428Z,77.80
2022-09-25T06:01:06.762Z,77.90
2022-09-25T06:03:36.591Z,78.00
2022-09-25T06:06:05.402Z,77.90
2022-09-25T06:08:35.684Z,78.10
2022-09-25T06:11:05.265Z,78.20
2022-09-25T06:13:34.818Z,78.00
2022-09-25T06:16:04.059Z,77.90
2022-09-25T06:18:33.682Z,77.80
2022-09-25T06:21:05.278Z,77.70
2022-09-25T06:23:33.543Z,77.30
2022-09-25T06:26:03.083Z,77.10
2022-09-25T06:28:31.976Z,77.00
2022-09-25T06:31:02.193Z,76.90
2022-09-25T06:33:31.205Z,76.60
2022-09-25T06:36:00.719Z,76.50
2022-09-25T06:38:33.361Z,76.30
2022-09-25T06:41:01.812Z,76.20
2022-09-25T06:43:30.488Z,76.00
2022-09-25T06:46:02.623Z,75.70
2022-09-25T06:48:31.468Z,75.40
2022-09-25T06:51:01.571Z,75.20
2022-09-25T06:53:31.509Z,75.10
2022-09-25T06:56:00.931Z,75.00
2022-09-25T06:58:31.428Z,74.60
2022-09-25T07:00:59.699Z,74.30
2022-09-25T07:03:45.473Z,74.20
2022-09-25T07:06:15.869Z,73.80
2022-09-25T07:08:48.191Z,73.10
2022-09-25T07:11:18.509Z,72.80
2022-09-25T07:13:47.090Z,72.60
2022-09-25T07:16:18.390Z,72.50
2022-09-25T07:18:48.038Z,72.30
2022-09-25T07:21:18.547Z,72.10
2022-09-25T07:23:49.953Z,72.10
2022-09-25T07:26:21.886Z,71.60
2022-09-25T07:28:54.857Z,71.30
2022-09-25T07:31:25.834Z,71.10
2022-09-25T07:33:54.368Z,71.00
2022-09-25T07:36:22.870Z,71.50
2022-09-25T07:38:53.412Z,70.10
2022-09-25T07:41:23.788Z,69.50
2022-09-25T07:44:06.345Z,69.50
2022-09-25T07:46:44.745Z,69.60
2022-09-25T07:49:13.282Z,69.50
2022-09-25T07:51:41.607Z,68.90
2022-09-25T07:54:11.412Z,68.70
2022-09-25T07:56:39.927Z,68.10
2022-09-25T07:59:08.229Z,67.80
2022-09-25T08:01:42.579Z,67.60
2022-09-25T08:04:11.954Z,67.70
2022-09-25T08:06:40.315Z,67.70
2022-09-25T08:09:11.625Z,67.50
2022-09-25T08:11:40.257Z,67.20
2022-09-25T08:14:08.567Z,66.60
2022-09-25T08:16:36.863Z,66.30
2022-09-25T08:19:05.517Z,66.20
2022-09-25T08:21:54.172Z,66.30
2022-09-25T08:24:23.807Z,65.70
2022-09-25T08:26:52.045Z,65.00
2022-09-25T08:29:20.300Z,64.70
2022-09-25T08:31:54.561Z,63.90
2022-09-25T08:37:11.384Z,63.50
2022-09-25T08:39:41.340Z,63.60
2022-09-25T08:42:21.541Z,63.20
2022-09-25T08:45:21.863Z,62.80
2022-09-25T08:48:11.168Z,62.50
2022-09-25T08:50:39.451Z,61.80
2022-09-25T08:53:11.413Z,61.30
2022-09-25T08:56:10.994Z,59.90
2022-09-25T08:58:43.380Z,60.20
2022-09-25T09:01:14.694Z,60.10
2022-09-25T09:03:50.030Z,60.20
2022-09-25T09:06:19.631Z,59.20
2022-09-25T09:08:53.255Z,59.00
2022-09-25T09:11:26.847Z,59.10
2022-09-25T09:13:59.418Z,59.00
2022-09-25T09:16:35.693Z,58.30
2022-09-25T09:19:07.061Z,58.10
2022-09-25T09:21:36.960Z,57.30
2022-09-25T09:24:11.002Z,57.10
2022-09-25T09:26:52.957Z,56.90
2022-09-25T09:29:31.422Z,56.50
2022-09-25T09:32:21.760Z,55.50
2022-09-25T09:35:06.665Z,55.60
2022-09-25T09:37:45.279Z,55.60
2022-09-25T09:40:33.225Z,55.90
2022-09-25T09:43:15.732Z,55.80
2022-09-25T09:45:49.730Z,55.70
2022-09-25T09:48:27.008Z,55.40
2022-09-25T09:51:02.402Z,54.90
2022-09-25T09:54:00.861Z,54.80
2022-09-25T09:56:32.387Z,54.80
2022-09-25T09:59:04.399Z,54.70
2022-09-25T10:01:41.215Z,54.70
2022-09-25T10:04:12.731Z,54.60
2022-09-25T10:06:46.122Z,54.70
2022-09-25T10:09:16.977Z,54.40
2022-09-25T10:11:46.869Z,54.40
2022-09-25T10:14:21.998Z,54.50
2022-09-25T10:16:51.922Z,54.50
2022-09-25T10:19:22.547Z,54.30
2022-09-25T10:21:54.875Z,53.70
2022-09-25T10:24:52.845Z,53.30
2022-09-25T10:27:26.343Z,53.10
2022-09-25T10:30:07.560Z,53.70
2022-09-25T10:32:42.669Z,52.70
2022-09-25T10:35:16.465Z,52.20
2022-09-25T10:37:45.435Z,52.40
2022-09-25T10:40:26.822Z,52.00
2022-09-25T10:43:17.331Z,51.80
2022-09-25T10:45:48.608Z,51.80
2022-09-25T10:48:50.497Z,51.70
2022-09-25T10:51:21.434Z,51.70
2022-09-25T10:53:51.128Z,50.70
2022-09-25T10:56:22.530Z,50.40
2022-09-25T10:58:56.311Z,50.50
2022-09-25T11:01:33.483Z,50.30
2022-09-25T11:04:04.709Z,49.90
2022-09-25T11:06:35.933Z,50.20
2022-09-25T11:09:09.213Z,50.30
2022-09-25T11:11:39.349Z,49.80
2022-09-25T11:14:19.436Z,49.50
2022-09-25T11:16:54.374Z,49.50
2022-09-25T11:19:30.930Z,48.70
2022-09-25T11:22:07.975Z,48.90
2022-09-25T11:24:50.815Z,48.80
2022-09-25T11:27:24.822Z,48.90
2022-09-25T11:30:03.262Z,47.60
2022-09-25T11:32:41.092Z,47.40
2022-09-25T11:35:34.741Z,47.40
2022-09-25T11:38:12.751Z,47.30
2022-09-25T11:41:07.651Z,47.20
2022-09-25T11:43:46.977Z,46.60
2022-09-25T11:46:23.220Z,46.20
2022-09-25T11:49:02.046Z,46.10
2022-09-25T11:51:48.124Z,45.50
2022-09-25T11:54:33.862Z,46.00
2022-09-25T11:57:07.709Z,45.80
2022-09-25T11:59:47.931Z,45.50
2022-09-25T12:02:29.030Z,45.50
2022-09-25T12:05:38.077Z,45.20
2022-09-25T12:08:19.443Z,45.20
2022-09-25T12:10:56.719Z,45.60
2022-09-25T12:13:38.780Z,45.40
2022-09-25T12:16:14.752Z,45.80
2022-09-25T12:19:18.527Z,46.10
2022-09-25T12:21:54.391Z,45.40
2022-09-25T12:24:36.161Z,44.60
2022-09-25T12:27:12.552Z,44.80
2022-09-25T12:29:51.910Z,45.00
2022-09-25T12:32:38.256Z,45.00
2022-09-25T12:35:21.431Z,44.50
2022-09-25T12:37:55.353Z,44.30
2022-09-25T12:40:30.503Z,44.50
2022-09-25T12:43:03.036Z,44.10
2022-09-25T12:45:36.255Z,43.90
2022-09-25T12:48:13.133Z,44.30
2022-09-25T12:50:47.216Z,44.40
2022-09-25T12:53:26.220Z,43.90
2022-09-25T12:56:00.904Z,43.10
2022-09-25T12:58:42.664Z,43.50
2022-09-25T13:01:17.554Z,43.40
2022-09-25T13:03:52.202Z,43.00
2022-09-25T13:06:30.046Z,42.40
2022-09-25T13:09:06.082Z,41.80
2022-09-25T13:11:40.928Z,42.00
2022-09-25T13:14:27.714Z,42.20
2022-09-25T13:16:56.228Z,42.60
2022-09-25T13:19:26.767Z,42.80
2022-09-25T13:22:02.881Z,43.10
2022-09-25T13:24:44.557Z,43.20
2022-09-25T13:27:22.280Z,42.60
2022-09-25T13:29:57.322Z,42.20
2022-09-25T13:32:29.140Z,41.50
2022-09-25T13:35:07.345Z,41.20
2022-09-25T13:37:37.874Z,41.00
2022-09-25T13:40:35.601Z,39.90
2022-09-25T13:43:25.101Z,39.10
2022-09-25T13:46:25.009Z,39.30
2022-09-25T13:48:55.761Z,39.60
2022-09-25T13:51:37.017Z,38.40
2022-09-25T13:54:24.732Z,38.90
2022-09-25T13:56:55.309Z,39.40
2022-09-25T13:59:38.845Z,39.30
2022-09-25T14:02:43.179Z,39.50
2022-09-25T14:05:17.836Z,39.20
2022-09-25T14:07:47.975Z,39.70
2022-09-25T14:10:17.646Z,40.00
2022-09-25T14:12:49.171Z,40.20
2022-09-25T14:15:26.901Z,39.60
2022-09-25T14:17:58.199Z,39.60
2022-09-25T14:20:35.050Z,40.00
2022-09-25T14:23:07.857Z,40.10
2022-09-25T14:25:40.724Z,39.90
2022-09-25T14:28:20.840Z,40.20
2022-09-25T14:31:08.498Z,40.50
2022-09-25T14:33:59.965Z,40.60
2022-09-25T14:36:36.871Z,40.60
2022-09-25T14:39:25.602Z,40.80
2022-09-25T14:42:23.388Z,40.90
2022-09-25T14:45:08.611Z,40.70
2022-09-25T14:47:38.710Z,40.80
2022-09-25T14:50:08.167Z,40.50
2022-09-25T14:52:37.914Z,40.80
2022-09-25T14:55:08.254Z,41.10
2022-09-25T14:57:39.775Z,41.00
2022-09-25T15:00:17.750Z,41.00
2022-09-25T15:02:48.347Z,40.40
2022-09-25T15:05:29.389Z,40.00
2022-09-25T15:08:02.420Z,40.10
2022-09-25T15:10:33.201Z,40.40
2022-09-25T15:13:10.116Z,40.60
2022-09-25T15:16:05.811Z,40.60
2022-09-25T15:18:38.387Z,40.90
2022-09-25T15:21:10.090Z,41.20
2022-09-25T15:23:39.149Z,41.50
2022-09-25T15:26:07.678Z,41.80
2022-09-25T15:28:40.228Z,42.00
2022-09-25T15:31:10.058Z,42.30
2022-09-25T15:33:44.332Z,42.50
2022-09-25T15:36:20.273Z,42.70
2022-09-25T15:38:54.431Z,42.90
2022-09-25T15:41:23.793Z,43.10
2022-09-25T15:43:53.526Z,43.30
2022-09-25T15:46:38.563Z,43.40
2022-09-25T15:49:07.517Z,43.50
2022-09-25T15:51:37.430Z,43.70
2022-09-25T15:54:19.084Z,43.80
2022-09-25T15:56:53.341Z,43.90
2022-09-25T15:59:25.230Z,44.20
2022-09-25T16:02:13.281Z,44.40
2022-09-25T16:04:47.398Z,44.80
2022-09-25T16:07:24.105Z,44.90
2022-09-25T16:09:53.321Z,45.00
2022-09-25T16:12:27.525Z,45.20
2022-09-25T16:14:57.150Z,45.40
2022-09-25T16:17:33.341Z,45.70
2022-09-25T16:20:07.914Z,46.10
2022-09-25T16:22:48.929Z,46.20
2022-09-25T16:25:25.989Z,46.50
2022-09-25T16:27:56.334Z,46.70
2022-09-25T16:30:25.311Z,46.90
2022-09-25T16:32:58.686Z,47.00
2022-09-25T16:35:57.529Z,47.40
2022-09-25T16:38:31.287Z,47.60
2022-09-25T16:41:19.920Z,47.80
2022-09-25T16:43:48.691Z,48.10
2022-09-25T16:46:19.565Z,48.30
2022-09-25T16:49:00.637Z,48.60
2022-09-25T16:51:30.454Z,48.90
2022-09-25T16:54:00.038Z,49.10
2022-09-25T16:56:30.670Z,49.30
2022-09-25T16:58:59.724Z,49.50
2022-09-25T17:01:29.689Z,49.70
2022-09-25T17:04:00.026Z,49.80
2022-09-25T17:06:30.561Z,50.00
2022-09-25T17:09:00.720Z,50.20
2022-09-25T17:11:29.094Z,50.40
2022-09-25T17:13:57.709Z,51.70
2022-09-25T17:16:25.960Z,51.50
2022-09-25T17:18:59.167Z,51.60
2022-09-25T17:21:31.027Z,51.70
2022-09-25T17:23:59.278Z,51.80
2022-09-25T17:26:27.658Z,52.00
2022-09-25T17:28:55.858Z,52.10
2022-09-25T17:31:25.903Z,52.10
2022-09-25T17:33:54.610Z,52.30
2022-09-25T17:36:25.170Z,52.40
2022-09-25T17:38:54.942Z,52.60
2022-09-25T17:41:30.463Z,52.80
2022-09-25T17:43:59.189Z,52.80
2022-09-25T17:46:33.870Z,53.00
2022-09-25T17:49:07.152Z,53.10
2022-09-25T17:51:38.922Z,53.40
2022-09-25T17:54:09.243Z,53.50
2022-09-25T17:56:48.379Z,53.80
2022-09-25T17:59:16.618Z,53.80
2022-09-25T18:01:44.943Z,53.90
2022-09-25T18:04:21.168Z,54.00
2022-09-25T18:06:49.630Z,54.10
2022-09-25T18:09:19.306Z,54.20
2022-09-25T18:11:47.814Z,54.30
2022-09-25T18:14:17.369Z,54.40
2022-09-25T18:16:46.468Z,54.60
2022-09-25T18:19:33.843Z,54.90
2022-09-25T18:22:21.814Z,55.10
2022-09-25T18:24:56.717Z,55.20
2022-09-25T18:27:26.375Z,55.20
2022-09-25T18:29:54.783Z,55.30
2022-09-25T18:32:24.151Z,55.40
2022-09-25T18:34:52.637Z,55.60
2022-09-25T18:37:20.923Z,55.70
2022-09-25T18:39:49.466Z,55.90
2022-09-25T18:42:19.170Z,56.00
2022-09-25T18:44:47.494Z,56.10
2022-09-25T18:47:16.341Z,56.30
2022-09-25T18:49:44.571Z,56.30
2022-09-25T18:52:12.971Z,56.50
2022-09-25T18:54:42.396Z,56.70
2022-09-25T18:57:11.053Z,56.80
2022-09-25T18:59:41.243Z,56.80
2022-09-25T19:02:22.253Z,56.90
2022-09-25T19:04:52.702Z,57.00
2022-09-25T19:07:20.910Z,57.00
2022-09-25T19:09:49.228Z,57.10
2022-09-25T19:12:18.169Z,57.10
2022-09-25T19:14:48.636Z,57.20
2022-09-25T19:17:18.666Z,57.30
2022-09-25T19:19:46.930Z,57.40
2022-09-25T19:22:18.611Z,57.50
2022-09-25T19:24:47.355Z,57.60
2022-09-25T19:27:16.918Z,57.60
2022-09-25T19:29:47.923Z,57.60
2022-09-25T19:32:17.828Z,57.60
2022-09-25T19:34:46.419Z,57.60
2022-09-25T19:37:15.360Z,57.80
2022-09-25T19:40:00.902Z,58.00
2022-09-25T19:42:37.453Z,58.10
2022-09-25T19:45:08.453Z,58.10
2022-09-25T19:47:36.820Z,58.40
2022-09-25T19:50:08.758Z,58.40
2022-09-25T19:52:37.123Z,58.40
2022-09-25T19:55:05.835Z,58.50
2022-09-25T19:57:34.078Z,58.60
2022-09-25T20:00:02.771Z,58.80
2022-09-25T20:02:32.407Z,58.90
2022-09-25T20:05:00.725Z,59.10
2022-09-25T20:07:29.314Z,59.00
2022-09-25T20:09:57.504Z,59.00
2022-09-25T20:12:25.818Z,59.00
2022-09-25T20:14:54.162Z,59.20
2022-09-25T20:17:22.401Z,59.80
2022-09-25T20:19:52.000Z,59.20
2022-09-25T20:22:20.292Z,59.20
2022-09-25T20:24:48.545Z,59.20
2022-09-25T20:27:20.996Z,59.30
2022-09-25T20:29:51.264Z,59.40
2022-09-25T20:32:19.519Z,59.50
2022-09-25T20:34:47.880Z,59.60
2022-09-25T20:37:17.609Z,59.70
2022-09-25T20:39:45.866Z,59.80
2022-09-25T20:42:29.144Z,59.80
2022-09-25T20:44:57.369Z,60.00
2022-09-25T20:47:26.580Z,59.90
2022-09-25T20:49:54.841Z,60.00
2022-09-25T20:52:24.524Z,60.10
2022-09-25T20:54:52.788Z,60.20
2022-09-25T20:57:26.942Z,60.40
2022-09-25T20:59:56.887Z,60.50
2022-09-25T21:02:25.914Z,60.60
2022-09-25T21:04:55.004Z,60.60
2022-09-25T21:07:26.485Z,60.80
2022-09-25T21:09:55.324Z,61.00
2022-09-25T21:12:23.644Z,61.00
2022-09-25T21:14:51.941Z,61.00
2022-09-25T21:17:20.212Z,60.90
2022-09-25T21:19:48.583Z,61.00
2022-09-25T21:22:16.818Z,61.10
2022-09-25T21:24:46.420Z,61.20
2022-09-25T21:27:14.835Z,61.20
2022-09-25T21:29:43.181Z,61.20
2022-09-25T21:32:11.451Z,61.30
2022-09-25T21:34:39.756Z,61.40
2022-09-25T21:37:08.014Z,61.40
2022-09-25T21:39:36.247Z,61.50
2022-09-25T21:42:06.267Z,61.70
2022-09-25T21:44:34.622Z,61.70
2022-09-25T21:47:03.086Z,61.70
2022-09-25T21:49:31.328Z,61.80
2022-09-25T21:51:59.644Z,61.80
2022-09-25T21:54:28.436Z,61.80
2022-09-25T21:56:56.629Z,61.80
2022-09-25T21:59:26.270Z,61.90
2022-09-25T22:01:55.720Z,62.00
2022-09-25T22:04:23.971Z,62.10
2022-09-25T22:06:52.169Z,62.20
2022-09-25T22:09:22.287Z,62.20
2022-09-25T22:11:51.315Z,62.40
2022-09-25T22:14:21.002Z,62.40
2022-09-25T22:16:53.384Z,62.50
2022-09-25T22:19:22.975Z,62.80
2022-09-25T22:21:52.891Z,62.80
2022-09-25T22:24:22.676Z,62.90
2022-09-25T22:26:52.646Z,63.10
2022-09-25T22:29:21.705Z,63.10
2022-09-25T22:31:51.880Z,63.20
2022-09-25T22:34:23.026Z,63.30
2022-09-25T22:36:56.409Z,63.40
2022-09-25T22:39:26.588Z,63.40
2022-09-25T22:41:55.972Z,63.50
2022-09-25T22:44:24.981Z,63.60
2022-09-25T22:46:54.716Z,63.70
2022-09-25T22:49:23.283Z,63.80
2022-09-25T22:51:51.491Z,63.90
2022-09-25T22:54:19.857Z,64.00
2022-09-25T22:56:48.159Z,64.30
2022-09-25T22:59:18.243Z,64.20
2022-09-25T23:01:50.109Z,64.20
2022-09-25T23:04:21.568Z,64.30
2022-09-25T23:06:50.212Z,64.30
2022-09-25T23:09:22.391Z,64.40
2022-09-25T23:11:51.134Z,64.50
2022-09-25T23:14:22.027Z,64.80
2022-09-25T23:16:52.250Z,64.90
2022-09-25T23:19:22.840Z,64.90
2022-09-25T23:21:53.424Z,64.90
2022-09-25T23:24:23.096Z,64.90
2022-09-25T23:26:51.871Z,65.00
2022-09-25T23:29:21.865Z,65.10
2022-09-25T23:31:51.392Z,65.20
2022-09-25T23:34:21.361Z,65.30
2022-09-25T23:36:49.643Z,65.20
2022-09-25T23:39:19.559Z,65.30
2022-09-25T23:41:48.148Z,65.40
2022-09-25T23:44:16.417Z,65.50
2022-09-25T23:46:45.503Z,65.50
2022-09-25T23:49:14.094Z,65.80
2022-09-25T23:51:44.036Z,65.90
2022-09-25T23:54:12.898Z,66.00
2022-09-25T23:56:41.566Z,66.10
2022-09-25T23:59:11.714Z,66.30
